sensor_id;sensor_type;location;lat;lon;timestamp;temperature;humidity
6581;DHT22;3324;50.796;7.228;2023-10-08T00:01:45;16.10;99.90
6581;DHT22;3324;50.796;7.228;2023-10-08T00:04:10;16.10;99.90
6581;DHT22;3324;50.796;7.228;2023-10-08T00:06:36;16.10;99.90
6581;DHT22;3324;50.796;7.228;2023-10-08T00:09:03;16.00;99.90
6581;DHT22;3324;50.796;7.228;2023-10-08T00:11:35;16.10;99.90
6581;DHT22;3324;50.796;7.228;2023-10-08T00:14:05;16.10;99.90
6581;DHT22;3324;50.796;7.228;2023-10-08T00:16:35;16.10;99.90
6581;DHT22;3324;50.796;7.228;2023-10-08T00:19:01;16.10;99.90
6581;DHT22;3324;50.796;7.228;2023-10-08T00:21:33;16.00;99.90
6581;DHT22;3324;50.796;7.228;2023-10-08T00:24:00;16.10;99.90
6581;DHT22;3324;50.796;7.228;2023-10-08T00:26:30;16.10;99.90
6581;DHT22;3324;50.796;7.228;2023-10-08T00:28:56;16.20;99.90
6581;DHT22;3324;50.796;7.228;2023-10-08T00:31:22;16.30;99.90
6581;DHT22;3324;50.796;7.228;2023-10-08T00:33:52;16.30;99.90
6581;DHT22;3324;50.796;7.228;2023-10-08T00:36:17;16.30;99.90
6581;DHT22;3324;50.796;7.228;2023-10-08T00:38:44;16.30;99.90
6581;DHT22;3324;50.796;7.228;2023-10-08T00:41:13;16.30;99.90
6581;DHT22;3324;50.796;7.228;2023-10-08T00:43:42;16.30;99.90
6581;DHT22;3324;50.796;7.228;2023-10-08T00:46:14;16.30;99.90
6581;DHT22;3324;50.796;7.228;2023-10-08T00:48:54;16.20;99.90
6581;DHT22;3324;50.796;7.228;2023-10-08T00:51:24;16.30;99.90
6581;DHT22;3324;50.796;7.228;2023-10-08T00:54:02;16.20;99.90
6581;DHT22;3324;50.796;7.228;2023-10-08T00:56:32;16.20;99.90
6581;DHT22;3324;50.796;7.228;2023-10-08T00:59:16;16.10;99.90
6581;DHT22;3324;50.796;7.228;2023-10-08T01:01:46;16.10;99.90
6581;DHT22;3324;50.796;7.228;2023-10-08T01:04:19;16.10;99.90
6581;DHT22;3324;50.796;7.228;2023-10-08T01:06:57;16.10;99.90
6581;DHT22;3324;50.796;7.228;2023-10-08T01:09:37;16.10;99.90
6581;DHT22;3324;50.796;7.228;2023-10-08T01:14:51;16.00;99.90
6581;DHT22;3324;50.796;7.228;2023-10-08T01:17:19;15.90;99.90
6581;DHT22;3324;50.796;7.228;2023-10-08T01:19:49;15.80;99.90
6581;DHT22;3324;50.796;7.228;2023-10-08T01:22:25;15.70;99.90
6581;DHT22;3324;50.796;7.228;2023-10-08T01:24:54;15.60;99.90
6581;DHT22;3324;50.796;7.228;2023-10-08T01:27:20;15.60;99.90
6581;DHT22;3324;50.796;7.228;2023-10-08T01:29:52;15.60;99.90
6581;DHT22;3324;50.796;7.228;2023-10-08T01:32:21;15.70;99.90
6581;DHT22;3324;50.796;7.228;2023-10-08T01:34:48;15.70;99.90
6581;DHT22;3324;50.796;7.228;2023-10-08T01:37:17;15.70;99.90
6581;DHT22;3324;50.796;7.228;2023-10-08T01:39:46;15.60;99.90
6581;DHT22;3324;50.796;7.228;2023-10-08T01:42:15;15.60;99.90
6581;DHT22;3324;50.796;7.228;2023-10-08T01:44:47;15.50;99.90
6581;DHT22;3324;50.796;7.228;2023-10-08T01:47:14;15.50;99.90
6581;DHT22;3324;50.796;7.228;2023-10-08T01:49:42;15.50;99.90
6581;DHT22;3324;50.796;7.228;2023-10-08T01:52:09;15.40;99.90
6581;DHT22;3324;50.796;7.228;2023-10-08T01:54:42;15.40;99.90
6581;DHT22;3324;50.796;7.228;2023-10-08T01:57:09;15.30;99.90
6581;DHT22;3324;50.796;7.228;2023-10-08T01:59:35;15.30;99.90
6581;DHT22;3324;50.796;7.228;2023-10-08T02:02:03;15.30;99.90
6581;DHT22;3324;50.796;7.228;2023-10-08T02:04:31;15.40;99.90
6581;DHT22;3324;50.796;7.228;2023-10-08T02:06:58;15.40;99.90
6581;DHT22;3324;50.796;7.228;2023-10-08T02:09:24;15.40;99.90
6581;DHT22;3324;50.796;7.228;2023-10-08T02:11:52;15.40;99.90
6581;DHT22;3324;50.796;7.228;2023-10-08T02:14:19;15.40;99.90
6581;DHT22;3324;50.796;7.228;2023-10-08T02:16:46;15.40;99.90
6581;DHT22;3324;50.796;7.228;2023-10-08T02:19:11;15.40;99.90
6581;DHT22;3324;50.796;7.228;2023-10-08T02:21:37;15.30;99.90
6581;DHT22;3324;50.796;7.228;2023-10-08T02:24:06;15.20;99.90
6581;DHT22;3324;50.796;7.228;2023-10-08T02:26:32;15.20;99.90
6581;DHT22;3324;50.796;7.228;2023-10-08T02:29:01;15.20;99.90
6581;DHT22;3324;50.796;7.228;2023-10-08T02:31:26;15.20;99.90
6581;DHT22;3324;50.796;7.228;2023-10-08T02:33:53;15.30;99.90
6581;DHT22;3324;50.796;7.228;2023-10-08T02:36:19;15.20;99.90
6581;DHT22;3324;50.796;7.228;2023-10-08T02:38:45;15.20;99.90
6581;DHT22;3324;50.796;7.228;2023-10-08T02:41:15;15.20;99.90
6581;DHT22;3324;50.796;7.228;2023-10-08T02:43:40;15.20;99.90
6581;DHT22;3324;50.796;7.228;2023-10-08T02:46:07;15.20;99.90
6581;DHT22;3324;50.796;7.228;2023-10-08T02:48:35;15.20;99.90
6581;DHT22;3324;50.796;7.228;2023-10-08T02:51:01;15.20;99.90
6581;DHT22;3324;50.796;7.228;2023-10-08T02:53:33;15.30;99.90
6581;DHT22;3324;50.796;7.228;2023-10-08T02:55:58;15.20;99.90
6581;DHT22;3324;50.796;7.228;2023-10-08T02:58:24;15.20;99.90
6581;DHT22;3324;50.796;7.228;2023-10-08T03:00:52;15.20;99.90
6581;DHT22;3324;50.796;7.228;2023-10-08T03:03:18;15.20;99.90
6581;DHT22;3324;50.796;7.228;2023-10-08T03:05:47;15.20;99.90
6581;DHT22;3324;50.796;7.228;2023-10-08T03:08:13;15.20;99.90
6581;DHT22;3324;50.796;7.228;2023-10-08T03:10:39;15.20;99.90
6581;DHT22;3324;50.796;7.228;2023-10-08T03:13:05;15.20;99.90
6581;DHT22;3324;50.796;7.228;2023-10-08T03:15:32;15.10;99.90
6581;DHT22;3324;50.796;7.228;2023-10-08T03:18:06;15.00;99.90
6581;DHT22;3324;50.796;7.228;2023-10-08T03:20:41;15.00;99.90
6581;DHT22;3324;50.796;7.228;2023-10-08T03:23:12;14.90;99.90
6581;DHT22;3324;50.796;7.228;2023-10-08T03:25:50;14.90;99.90
6581;DHT22;3324;50.796;7.228;2023-10-08T03:28:15;14.90;99.90
6581;DHT22;3324;50.796;7.228;2023-10-08T03:30:41;14.90;99.90
6581;DHT22;3324;50.796;7.228;2023-10-08T03:33:16;15.00;99.90
6581;DHT22;3324;50.796;7.228;2023-10-08T03:35:50;14.90;99.90
6581;DHT22;3324;50.796;7.228;2023-10-08T03:38:20;15.00;99.90
6581;DHT22;3324;50.796;7.228;2023-10-08T03:41:04;14.90;99.90
6581;DHT22;3324;50.796;7.228;2023-10-08T03:43:34;14.90;99.90
6581;DHT22;3324;50.796;7.228;2023-10-08T03:46:00;15.00;99.90
6581;DHT22;3324;50.796;7.228;2023-10-08T03:48:33;15.00;99.90
6581;DHT22;3324;50.796;7.228;2023-10-08T03:51:04;15.00;99.90
6581;DHT22;3324;50.796;7.228;2023-10-08T03:53:37;15.00;99.90
6581;DHT22;3324;50.796;7.228;2023-10-08T03:56:07;15.10;99.90
6581;DHT22;3324;50.796;7.228;2023-10-08T03:58:34;15.10;99.90
6581;DHT22;3324;50.796;7.228;2023-10-08T04:01:06;15.10;99.90
6581;DHT22;3324;50.796;7.228;2023-10-08T04:03:36;15.10;99.90
6581;DHT22;3324;50.796;7.228;2023-10-08T04:06:16;15.20;99.90
6581;DHT22;3324;50.796;7.228;2023-10-08T04:08:41;15.10;99.90
6581;DHT22;3324;50.796;7.228;2023-10-08T04:11:23;15.10;99.90
6581;DHT22;3324;50.796;7.228;2023-10-08T04:14:03;15.10;99.90
6581;DHT22;3324;50.796;7.228;2023-10-08T04:16:29;15.00;99.90
6581;DHT22;3324;50.796;7.228;2023-10-08T04:18:55;15.00;99.90
6581;DHT22;3324;50.796;7.228;2023-10-08T04:21:24;14.90;99.90
6581;DHT22;3324;50.796;7.228;2023-10-08T04:23:53;15.00;99.90
6581;DHT22;3324;50.796;7.228;2023-10-08T04:26:18;15.00;99.90
6581;DHT22;3324;50.796;7.228;2023-10-08T04:28:55;15.10;99.90
6581;DHT22;3324;50.796;7.228;2023-10-08T04:31:23;15.10;99.90
6581;DHT22;3324;50.796;7.228;2023-10-08T04:34:07;15.20;99.90
6581;DHT22;3324;50.796;7.228;2023-10-08T04:36:42;15.20;99.90
6581;DHT22;3324;50.796;7.228;2023-10-08T04:39:07;15.00;99.90
6581;DHT22;3324;50.796;7.228;2023-10-08T04:41:46;14.90;99.90
6581;DHT22;3324;50.796;7.228;2023-10-08T04:44:13;14.80;99.90
6581;DHT22;3324;50.796;7.228;2023-10-08T04:46:40;14.70;99.90
6581;DHT22;3324;50.796;7.228;2023-10-08T04:49:14;14.70;99.90
6581;DHT22;3324;50.796;7.228;2023-10-08T04:51:58;14.70;99.90
6581;DHT22;3324;50.796;7.228;2023-10-08T04:54:24;14.80;99.90
6581;DHT22;3324;50.796;7.228;2023-10-08T04:56:49;14.90;99.90
6581;DHT22;3324;50.796;7.228;2023-10-08T04:59:15;14.90;99.90
6581;DHT22;3324;50.796;7.228;2023-10-08T05:01:46;15.00;99.90
6581;DHT22;3324;50.796;7.228;2023-10-08T05:04:34;15.10;99.90
6581;DHT22;3324;50.796;7.228;2023-10-08T05:07:12;15.00;99.90
6581;DHT22;3324;50.796;7.228;2023-10-08T05:10:06;15.00;99.90
6581;DHT22;3324;50.796;7.228;2023-10-08T05:12:31;14.90;99.90
6581;DHT22;3324;50.796;7.228;2023-10-08T05:15:03;14.90;99.90
6581;DHT22;3324;50.796;7.228;2023-10-08T05:17:38;14.90;99.90
6581;DHT22;3324;50.796;7.228;2023-10-08T05:20:18;14.90;99.90
6581;DHT22;3324;50.796;7.228;2023-10-08T05:23:09;15.00;99.90
6581;DHT22;3324;50.796;7.228;2023-10-08T05:25:50;15.10;99.90
6581;DHT22;3324;50.796;7.228;2023-10-08T05:28:23;15.00;99.90
6581;DHT22;3324;50.796;7.228;2023-10-08T05:30:53;15.00;99.90
6581;DHT22;3324;50.796;7.228;2023-10-08T05:33:20;14.90;99.90
6581;DHT22;3324;50.796;7.228;2023-10-08T05:36:11;15.00;99.90
6581;DHT22;3324;50.796;7.228;2023-10-08T05:38:43;14.90;99.90
6581;DHT22;3324;50.796;7.228;2023-10-08T05:41:26;14.90;99.90
6581;DHT22;3324;50.796;7.228;2023-10-08T05:44:05;14.80;99.90
6581;DHT22;3324;50.796;7.228;2023-10-08T05:46:40;14.80;99.90
6581;DHT22;3324;50.796;7.228;2023-10-08T05:49:14;14.80;99.90
6581;DHT22;3324;50.796;7.228;2023-10-08T05:51:40;14.70;99.90
6581;DHT22;3324;50.796;7.228;2023-10-08T05:54:12;14.70;99.90
6581;DHT22;3324;50.796;7.228;2023-10-08T05:57:08;14.80;99.90
6581;DHT22;3324;50.796;7.228;2023-10-08T06:02:23;14.80;99.90
6581;DHT22;3324;50.796;7.228;2023-10-08T06:05:05;15.00;99.90
6581;DHT22;3324;50.796;7.228;2023-10-08T06:07:47;14.90;99.90
6581;DHT22;3324;50.796;7.228;2023-10-08T06:10:30;14.90;99.90
6581;DHT22;3324;50.796;7.228;2023-10-08T06:15:40;14.90;99.90
6581;DHT22;3324;50.796;7.228;2023-10-08T06:18:34;15.00;99.90
6581;DHT22;3324;50.796;7.228;2023-10-08T06:21:04;15.10;99.90
6581;DHT22;3324;50.796;7.228;2023-10-08T06:23:34;15.30;99.90
6581;DHT22;3324;50.796;7.228;2023-10-08T06:26:03;15.20;99.90
6581;DHT22;3324;50.796;7.228;2023-10-08T06:28:39;15.20;99.90
6581;DHT22;3324;50.796;7.228;2023-10-08T06:31:05;15.20;99.90
6581;DHT22;3324;50.796;7.228;2023-10-08T06:33:37;15.30;99.90
6581;DHT22;3324;50.796;7.228;2023-10-08T06:36:03;15.40;99.90
6581;DHT22;3324;50.796;7.228;2023-10-08T06:38:49;15.50;99.90
6581;DHT22;3324;50.796;7.228;2023-10-08T06:41:15;15.50;99.90
6581;DHT22;3324;50.796;7.228;2023-10-08T06:43:43;15.50;99.90
6581;DHT22;3324;50.796;7.228;2023-10-08T06:46:14;15.60;99.90
6581;DHT22;3324;50.796;7.228;2023-10-08T06:48:41;15.60;99.90
6581;DHT22;3324;50.796;7.228;2023-10-08T06:51:11;15.40;99.90
6581;DHT22;3324;50.796;7.228;2023-10-08T06:53:42;15.40;99.90
6581;DHT22;3324;50.796;7.228;2023-10-08T06:56:10;15.30;99.90
6581;DHT22;3324;50.796;7.228;2023-10-08T06:58:38;15.30;99.90
6581;DHT22;3324;50.796;7.228;2023-10-08T07:01:04;15.30;99.90
6581;DHT22;3324;50.796;7.228;2023-10-08T07:03:30;15.40;99.90
6581;DHT22;3324;50.796;7.228;2023-10-08T07:05:56;15.40;99.90
6581;DHT22;3324;50.796;7.228;2023-10-08T07:08:25;15.40;99.90
6581;DHT22;3324;50.796;7.228;2023-10-08T07:10:52;15.50;99.90
6581;DHT22;3324;50.796;7.228;2023-10-08T07:13:19;15.50;99.90
6581;DHT22;3324;50.796;7.228;2023-10-08T07:15:50;15.50;99.90
6581;DHT22;3324;50.796;7.228;2023-10-08T07:18:16;15.60;99.90
6581;DHT22;3324;50.796;7.228;2023-10-08T07:20:50;15.60;99.90
6581;DHT22;3324;50.796;7.228;2023-10-08T07:23:21;15.60;99.90
6581;DHT22;3324;50.796;7.228;2023-10-08T07:25:58;15.60;99.90
6581;DHT22;3324;50.796;7.228;2023-10-08T07:28:39;15.70;99.90
6581;DHT22;3324;50.796;7.228;2023-10-08T07:31:14;15.70;99.90
6581;DHT22;3324;50.796;7.228;2023-10-08T07:33:53;15.80;99.90
6581;DHT22;3324;50.796;7.228;2023-10-08T07:36:25;15.80;99.90
6581;DHT22;3324;50.796;7.228;2023-10-08T07:38:52;15.90;99.90
6581;DHT22;3324;50.796;7.228;2023-10-08T07:41:18;16.00;99.90
6581;DHT22;3324;50.796;7.228;2023-10-08T07:43:45;16.00;99.90
6581;DHT22;3324;50.796;7.228;2023-10-08T07:46:27;16.00;99.90
6581;DHT22;3324;50.796;7.228;2023-10-08T07:48:53;16.10;99.90
6581;DHT22;3324;50.796;7.228;2023-10-08T07:51:18;16.00;99.90
6581;DHT22;3324;50.796;7.228;2023-10-08T07:53:50;16.10;99.90
6581;DHT22;3324;50.796;7.228;2023-10-08T07:56:20;16.00;99.90
6581;DHT22;3324;50.796;7.228;2023-10-08T07:58:45;16.10;99.90
6581;DHT22;3324;50.796;7.228;2023-10-08T08:01:12;16.20;99.90
6581;DHT22;3324;50.796;7.228;2023-10-08T08:03:39;16.20;99.90
6581;DHT22;3324;50.796;7.228;2023-10-08T08:06:07;16.30;99.90
6581;DHT22;3324;50.796;7.228;2023-10-08T08:08:33;16.40;99.90
6581;DHT22;3324;50.796;7.228;2023-10-08T08:10:59;16.40;99.90
6581;DHT22;3324;50.796;7.228;2023-10-08T08:13:29;16.40;99.90
6581;DHT22;3324;50.796;7.228;2023-10-08T08:15:55;16.40;99.90
6581;DHT22;3324;50.796;7.228;2023-10-08T08:18:26;16.40;99.90
6581;DHT22;3324;50.796;7.228;2023-10-08T08:20:58;16.50;99.90
6581;DHT22;3324;50.796;7.228;2023-10-08T08:23:28;16.60;99.90
6581;DHT22;3324;50.796;7.228;2023-10-08T08:25:53;16.70;99.90
6581;DHT22;3324;50.796;7.228;2023-10-08T08:29:00;16.80;99.90
6581;DHT22;3324;50.796;7.228;2023-10-08T08:31:30;16.80;99.90
6581;DHT22;3324;50.796;7.228;2023-10-08T08:34:01;16.90;99.90
6581;DHT22;3324;50.796;7.228;2023-10-08T08:36:39;17.00;99.90
6581;DHT22;3324;50.796;7.228;2023-10-08T08:39:11;17.10;99.90
6581;DHT22;3324;50.796;7.228;2023-10-08T08:41:37;17.20;99.90
6581;DHT22;3324;50.796;7.228;2023-10-08T08:44:03;17.30;99.90
6581;DHT22;3324;50.796;7.228;2023-10-08T08:46:32;17.40;99.90
6581;DHT22;3324;50.796;7.228;2023-10-08T08:49:04;17.40;99.90
6581;DHT22;3324;50.796;7.228;2023-10-08T08:51:30;17.40;99.90
6581;DHT22;3324;50.796;7.228;2023-10-08T08:53:56;17.40;99.90
6581;DHT22;3324;50.796;7.228;2023-10-08T08:56:21;17.40;99.90
6581;DHT22;3324;50.796;7.228;2023-10-08T08:58:48;17.50;99.90
6581;DHT22;3324;50.796;7.228;2023-10-08T09:01:14;17.50;99.90
6581;DHT22;3324;50.796;7.228;2023-10-08T09:03:43;17.50;99.90
6581;DHT22;3324;50.796;7.228;2023-10-08T09:06:08;17.50;99.90
6581;DHT22;3324;50.796;7.228;2023-10-08T09:08:34;17.50;99.90
6581;DHT22;3324;50.796;7.228;2023-10-08T09:11:00;17.60;99.90
6581;DHT22;3324;50.796;7.228;2023-10-08T09:13:33;17.50;99.90
6581;DHT22;3324;50.796;7.228;2023-10-08T09:16:06;17.50;99.90
6581;DHT22;3324;50.796;7.228;2023-10-08T09:18:32;17.50;99.90
6581;DHT22;3324;50.796;7.228;2023-10-08T09:21:06;17.60;99.90
6581;DHT22;3324;50.796;7.228;2023-10-08T09:23:38;17.60;99.90
6581;DHT22;3324;50.796;7.228;2023-10-08T09:26:04;17.80;99.90
6581;DHT22;3324;50.796;7.228;2023-10-08T09:28:31;17.80;99.90
6581;DHT22;3324;50.796;7.228;2023-10-08T09:30:57;17.90;99.90
6581;DHT22;3324;50.796;7.228;2023-10-08T09:33:24;17.90;99.90
6581;DHT22;3324;50.796;7.228;2023-10-08T09:35:50;18.00;99.90
6581;DHT22;3324;50.796;7.228;2023-10-08T09:38:21;18.10;99.90
6581;DHT22;3324;50.796;7.228;2023-10-08T09:40:49;18.20;99.90
6581;DHT22;3324;50.796;7.228;2023-10-08T09:43:15;18.30;99.90
6581;DHT22;3324;50.796;7.228;2023-10-08T09:45:42;18.30;99.90
6581;DHT22;3324;50.796;7.228;2023-10-08T09:48:10;18.40;99.90
6581;DHT22;3324;50.796;7.228;2023-10-08T09:50:39;18.40;99.90
6581;DHT22;3324;50.796;7.228;2023-10-08T09:53:09;18.50;99.90
6581;DHT22;3324;50.796;7.228;2023-10-08T09:55:49;18.50;99.90
6581;DHT22;3324;50.796;7.228;2023-10-08T09:58:19;18.50;99.90
6581;DHT22;3324;50.796;7.228;2023-10-08T10:00:45;18.50;99.90
6581;DHT22;3324;50.796;7.228;2023-10-08T10:03:14;18.60;99.90
6581;DHT22;3324;50.796;7.228;2023-10-08T10:05:39;18.50;99.90
6581;DHT22;3324;50.796;7.228;2023-10-08T10:08:08;18.60;99.90
6581;DHT22;3324;50.796;7.228;2023-10-08T10:10:35;18.70;99.90
6581;DHT22;3324;50.796;7.228;2023-10-08T10:13:04;18.60;99.90
6581;DHT22;3324;50.796;7.228;2023-10-08T10:15:31;18.60;99.90
6581;DHT22;3324;50.796;7.228;2023-10-08T10:20:44;18.60;99.90
6581;DHT22;3324;50.796;7.228;2023-10-08T10:25:56;18.70;99.90
6581;DHT22;3324;50.796;7.228;2023-10-08T10:28:22;18.70;99.90
6581;DHT22;3324;50.796;7.228;2023-10-08T10:30:48;18.90;99.90
6581;DHT22;3324;50.796;7.228;2023-10-08T10:33:13;18.90;99.90
6581;DHT22;3324;50.796;7.228;2023-10-08T10:35:39;18.90;99.90
6581;DHT22;3324;50.796;7.228;2023-10-08T10:38:07;19.00;99.90
6581;DHT22;3324;50.796;7.228;2023-10-08T10:40:32;19.00;99.90
6581;DHT22;3324;50.796;7.228;2023-10-08T10:43:07;18.90;99.90
6581;DHT22;3324;50.796;7.228;2023-10-08T10:45:34;19.00;99.90
6581;DHT22;3324;50.796;7.228;2023-10-08T10:48:09;19.00;99.90
6581;DHT22;3324;50.796;7.228;2023-10-08T10:50:57;19.10;99.90
6581;DHT22;3324;50.796;7.228;2023-10-08T10:53:32;19.20;99.90
6581;DHT22;3324;50.796;7.228;2023-10-08T10:55:58;19.30;99.90
6581;DHT22;3324;50.796;7.228;2023-10-08T10:58:28;19.30;99.90
6581;DHT22;3324;50.796;7.228;2023-10-08T11:01:03;19.40;99.90
6581;DHT22;3324;50.796;7.228;2023-10-08T11:03:48;19.50;99.90
6581;DHT22;3324;50.796;7.228;2023-10-08T11:06:13;19.60;99.90
6581;DHT22;3324;50.796;7.228;2023-10-08T11:08:51;19.70;99.90
6581;DHT22;3324;50.796;7.228;2023-10-08T11:11:18;19.70;99.90
6581;DHT22;3324;50.796;7.228;2023-10-08T11:13:44;19.90;99.90
6581;DHT22;3324;50.796;7.228;2023-10-08T11:16:15;20.00;99.90
6581;DHT22;3324;50.796;7.228;2023-10-08T11:18:42;20.10;99.90
6581;DHT22;3324;50.796;7.228;2023-10-08T11:21:09;20.10;99.90
6581;DHT22;3324;50.796;7.228;2023-10-08T11:23:42;20.20;99.90
6581;DHT22;3324;50.796;7.228;2023-10-08T11:26:07;20.10;99.90
6581;DHT22;3324;50.796;7.228;2023-10-08T11:28:37;20.20;99.90
6581;DHT22;3324;50.796;7.228;2023-10-08T11:31:10;20.20;99.90
6581;DHT22;3324;50.796;7.228;2023-10-08T11:33:36;20.20;99.90
6581;DHT22;3324;50.796;7.228;2023-10-08T11:36:03;20.30;99.90
6581;DHT22;3324;50.796;7.228;2023-10-08T11:38:38;20.50;99.90
6581;DHT22;3324;50.796;7.228;2023-10-08T11:41:13;20.70;99.90
6581;DHT22;3324;50.796;7.228;2023-10-08T11:43:47;20.80;99.90
6581;DHT22;3324;50.796;7.228;2023-10-08T11:46:13;20.90;99.90
6581;DHT22;3324;50.796;7.228;2023-10-08T11:48:43;21.00;99.90
6581;DHT22;3324;50.796;7.228;2023-10-08T11:51:12;21.00;99.90
6581;DHT22;3324;50.796;7.228;2023-10-08T11:53:38;21.00;99.90
6581;DHT22;3324;50.796;7.228;2023-10-08T11:56:04;20.90;99.90
6581;DHT22;3324;50.796;7.228;2023-10-08T11:58:41;20.90;99.90
6581;DHT22;3324;50.796;7.228;2023-10-08T12:01:10;21.00;99.90
6581;DHT22;3324;50.796;7.228;2023-10-08T12:03:41;21.00;99.90
6581;DHT22;3324;50.796;7.228;2023-10-08T12:06:07;21.00;99.90
6581;DHT22;3324;50.796;7.228;2023-10-08T12:08:33;21.10;99.90
6581;DHT22;3324;50.796;7.228;2023-10-08T12:11:04;21.10;99.90
6581;DHT22;3324;50.796;7.228;2023-10-08T12:13:37;21.10;99.90
6581;DHT22;3324;50.796;7.228;2023-10-08T12:16:03;21.10;99.90
6581;DHT22;3324;50.796;7.228;2023-10-08T12:18:32;21.10;99.90
6581;DHT22;3324;50.796;7.228;2023-10-08T12:21:00;21.10;99.90
6581;DHT22;3324;50.796;7.228;2023-10-08T12:23:26;21.00;99.90
6581;DHT22;3324;50.796;7.228;2023-10-08T12:25:57;20.80;99.90
6581;DHT22;3324;50.796;7.228;2023-10-08T12:28:22;20.80;99.90
6581;DHT22;3324;50.796;7.228;2023-10-08T12:30:54;20.80;99.90
6581;DHT22;3324;50.796;7.228;2023-10-08T12:33:21;20.80;99.90
6581;DHT22;3324;50.796;7.228;2023-10-08T12:35:52;20.70;99.90
6581;DHT22;3324;50.796;7.228;2023-10-08T12:38:18;20.60;99.90
6581;DHT22;3324;50.796;7.228;2023-10-08T12:40:47;20.60;99.90
6581;DHT22;3324;50.796;7.228;2023-10-08T12:43:14;20.70;99.90
6581;DHT22;3324;50.796;7.228;2023-10-08T12:45:45;20.70;99.90
6581;DHT22;3324;50.796;7.228;2023-10-08T12:48:10;20.60;99.90
6581;DHT22;3324;50.796;7.228;2023-10-08T12:50:39;20.60;99.90
6581;DHT22;3324;50.796;7.228;2023-10-08T12:53:11;20.60;99.90
6581;DHT22;3324;50.796;7.228;2023-10-08T12:55:39;20.50;99.90
6581;DHT22;3324;50.796;7.228;2023-10-08T12:58:05;20.50;99.90
6581;DHT22;3324;50.796;7.228;2023-10-08T13:00:37;20.50;99.90
6581;DHT22;3324;50.796;7.228;2023-10-08T13:03:03;20.40;99.90
6581;DHT22;3324;50.796;7.228;2023-10-08T13:05:31;20.50;99.90
6581;DHT22;3324;50.796;7.228;2023-10-08T13:07:58;20.50;99.90
6581;DHT22;3324;50.796;7.228;2023-10-08T13:10:29;20.50;99.90
6581;DHT22;3324;50.796;7.228;2023-10-08T13:12:56;20.50;99.90
6581;DHT22;3324;50.796;7.228;2023-10-08T13:15:22;20.60;99.90
6581;DHT22;3324;50.796;7.228;2023-10-08T13:17:53;20.50;99.90
6581;DHT22;3324;50.796;7.228;2023-10-08T13:20:19;20.50;99.90
6581;DHT22;3324;50.796;7.228;2023-10-08T13:22:46;20.40;99.90
6581;DHT22;3324;50.796;7.228;2023-10-08T13:25:12;20.40;99.90
6581;DHT22;3324;50.796;7.228;2023-10-08T13:27:38;20.40;99.90
6581;DHT22;3324;50.796;7.228;2023-10-08T13:30:05;20.40;99.90
6581;DHT22;3324;50.796;7.228;2023-10-08T13:32:33;20.40;99.90
6581;DHT22;3324;50.796;7.228;2023-10-08T13:35:01;20.40;99.90
6581;DHT22;3324;50.796;7.228;2023-10-08T13:37:26;20.30;99.90
6581;DHT22;3324;50.796;7.228;2023-10-08T13:39:52;20.40;99.90
6581;DHT22;3324;50.796;7.228;2023-10-08T13:42:18;20.50;99.90
6581;DHT22;3324;50.796;7.228;2023-10-08T13:44:46;20.50;99.90
6581;DHT22;3324;50.796;7.228;2023-10-08T13:47:11;20.50;99.90
6581;DHT22;3324;50.796;7.228;2023-10-08T13:49:40;20.60;99.90
6581;DHT22;3324;50.796;7.228;2023-10-08T13:52:08;20.70;99.90
6581;DHT22;3324;50.796;7.228;2023-10-08T13:54:34;20.70;99.90
6581;DHT22;3324;50.796;7.228;2023-10-08T13:57:04;20.60;99.90
6581;DHT22;3324;50.796;7.228;2023-10-08T13:59:34;20.60;99.90
6581;DHT22;3324;50.796;7.228;2023-10-08T14:01:59;20.50;99.90
6581;DHT22;3324;50.796;7.228;2023-10-08T14:04:27;20.50;99.90
6581;DHT22;3324;50.796;7.228;2023-10-08T14:06:55;20.40;99.90
6581;DHT22;3324;50.796;7.228;2023-10-08T14:09:23;20.40;99.90
6581;DHT22;3324;50.796;7.228;2023-10-08T14:12:02;20.40;99.90
6581;DHT22;3324;50.796;7.228;2023-10-08T14:14:28;20.40;99.90
6581;DHT22;3324;50.796;7.228;2023-10-08T14:16:56;20.40;99.90
6581;DHT22;3324;50.796;7.228;2023-10-08T14:19:25;20.30;99.90
6581;DHT22;3324;50.796;7.228;2023-10-08T14:22:01;20.30;99.90
6581;DHT22;3324;50.796;7.228;2023-10-08T14:24:28;20.40;99.90
6581;DHT22;3324;50.796;7.228;2023-10-08T14:26:58;20.40;99.90
6581;DHT22;3324;50.796;7.228;2023-10-08T14:29:31;20.40;99.90
6581;DHT22;3324;50.796;7.228;2023-10-08T14:31:59;20.40;99.90
6581;DHT22;3324;50.796;7.228;2023-10-08T14:34:25;20.50;99.90
6581;DHT22;3324;50.796;7.228;2023-10-08T14:37:08;20.60;99.90
6581;DHT22;3324;50.796;7.228;2023-10-08T14:39:53;20.70;99.90
6581;DHT22;3324;50.796;7.228;2023-10-08T14:42:37;20.60;99.90
6581;DHT22;3324;50.796;7.228;2023-10-08T14:45:24;20.60;99.90
6581;DHT22;3324;50.796;7.228;2023-10-08T14:47:56;20.50;99.90
6581;DHT22;3324;50.796;7.228;2023-10-08T14:50:22;20.40;99.90
6581;DHT22;3324;50.796;7.228;2023-10-08T14:52:47;20.50;99.90
6581;DHT22;3324;50.796;7.228;2023-10-08T14:55:13;20.40;99.90
6581;DHT22;3324;50.796;7.228;2023-10-08T14:57:39;20.40;99.90
6581;DHT22;3324;50.796;7.228;2023-10-08T15:00:05;20.30;99.90
6581;DHT22;3324;50.796;7.228;2023-10-08T15:02:31;20.20;99.90
6581;DHT22;3324;50.796;7.228;2023-10-08T15:04:58;20.20;99.90
6581;DHT22;3324;50.796;7.228;2023-10-08T15:07:29;20.20;99.90
6581;DHT22;3324;50.796;7.228;2023-10-08T15:09:54;20.20;99.90
6581;DHT22;3324;50.796;7.228;2023-10-08T15:12:26;20.20;99.90
6581;DHT22;3324;50.796;7.228;2023-10-08T15:14:51;20.10;99.90
6581;DHT22;3324;50.796;7.228;2023-10-08T15:17:17;20.10;99.90
6581;DHT22;3324;50.796;7.228;2023-10-08T15:19:43;20.10;99.90
6581;DHT22;3324;50.796;7.228;2023-10-08T15:22:08;20.00;99.90
6581;DHT22;3324;50.796;7.228;2023-10-08T15:24:33;19.90;99.90
6581;DHT22;3324;50.796;7.228;2023-10-08T15:27:02;20.00;99.90
6581;DHT22;3324;50.796;7.228;2023-10-08T15:29:27;19.90;99.90
6581;DHT22;3324;50.796;7.228;2023-10-08T15:31:53;19.90;99.90
6581;DHT22;3324;50.796;7.228;2023-10-08T15:34:23;19.80;99.90
6581;DHT22;3324;50.796;7.228;2023-10-08T15:36:50;19.80;99.90
6581;DHT22;3324;50.796;7.228;2023-10-08T15:39:17;19.90;99.90
6581;DHT22;3324;50.796;7.228;2023-10-08T15:41:50;19.80;99.90
6581;DHT22;3324;50.796;7.228;2023-10-08T15:44:16;19.80;99.90
6581;DHT22;3324;50.796;7.228;2023-10-08T15:46:46;19.80;99.90
6581;DHT22;3324;50.796;7.228;2023-10-08T15:49:11;19.80;99.90
6581;DHT22;3324;50.796;7.228;2023-10-08T15:51:38;19.80;99.90
6581;DHT22;3324;50.796;7.228;2023-10-08T15:54:03;19.80;99.90
6581;DHT22;3324;50.796;7.228;2023-10-08T15:56:29;19.80;99.90
6581;DHT22;3324;50.796;7.228;2023-10-08T15:58:55;19.80;99.90
6581;DHT22;3324;50.796;7.228;2023-10-08T16:01:21;19.70;99.90
6581;DHT22;3324;50.796;7.228;2023-10-08T16:03:47;19.70;99.90
6581;DHT22;3324;50.796;7.228;2023-10-08T16:06:12;19.70;99.90
6581;DHT22;3324;50.796;7.228;2023-10-08T16:08:38;19.60;99.90
6581;DHT22;3324;50.796;7.228;2023-10-08T16:11:03;19.50;99.90
6581;DHT22;3324;50.796;7.228;2023-10-08T16:13:29;19.50;99.90
6581;DHT22;3324;50.796;7.228;2023-10-08T16:15:54;19.40;99.90
6581;DHT22;3324;50.796;7.228;2023-10-08T16:18:20;19.40;99.90
6581;DHT22;3324;50.796;7.228;2023-10-08T16:20:46;19.40;99.90
6581;DHT22;3324;50.796;7.228;2023-10-08T16:23:12;19.30;99.90
6581;DHT22;3324;50.796;7.228;2023-10-08T16:25:38;19.30;99.90
6581;DHT22;3324;50.796;7.228;2023-10-08T16:28:04;19.20;99.90
6581;DHT22;3324;50.796;7.228;2023-10-08T16:30:30;19.20;99.90
6581;DHT22;3324;50.796;7.228;2023-10-08T16:32:58;19.20;99.90